Time;durP1;ratioP1;P1;durP2;ratioP2;P2;SDS_P1;SDS_P2;PMS_P1;PMS_P2;Temp;Humidity;BMP_temperature;BMP_pressure;BME280_temperature;BME280_humidity;BME280_pressure;Samples;Min_cycle;Max_cycle;Signal;HPM_P1;HPM_P2
2023/03/07 00:00:45;;;;;;;22.05;9.73;;;;;;;1.67;100.00;98982.94;5125961;28;19922;-70
2023/03/07 00:03:16;;;;;;;21.60;9.73;;;;;;;1.66;100.00;98975.25;5127122;28;20383;-71
2023/03/07 00:05:47;;;;;;;21.92;9.45;;;;;;;1.73;100.00;98969.06;5126479;28;20039;-71
2023/03/07 00:08:17;;;;;;;25.08;10.02;;;;;;;1.72;100.00;98964.81;5127893;28;20567;-70
2023/03/07 00:10:47;;;;;;;24.27;10.18;;;;;;;1.68;100.00;98948.59;5124386;28;20118;-70
2023/03/07 00:13:18;;;;;;;21.73;9.32;;;;;;;1.74;100.00;98958.72;5124691;28;20502;-70
2023/03/07 00:15:48;;;;;;;26.73;10.68;;;;;;;1.76;100.00;98940.66;5126865;28;20049;-71
2023/03/07 00:18:19;;;;;;;21.42;9.75;;;;;;;1.80;100.00;98937.97;5109298;28;20041;-70
2023/03/07 00:20:57;;;;;;;27.27;9.50;;;;;;;1.80;100.00;98928.50;5123669;28;20539;-70
2023/03/07 00:23:27;;;;;;;22.52;9.80;;;;;;;1.81;100.00;98929.38;5123555;28;20039;-71
2023/03/07 00:26:04;;;;;;;22.25;9.63;;;;;;;1.83;100.00;98915.53;5128873;28;20042;-69
2023/03/07 00:28:35;;;;;;;24.42;10.30;;;;;;;1.84;100.00;98914.66;5125937;28;20058;-70
2023/03/07 00:31:08;;;;;;;23.58;10.20;;;;;;;1.90;100.00;98908.50;5131572;28;20114;-71
2023/03/07 00:33:39;;;;;;;28.55;10.75;;;;;;;1.92;100.00;98906.72;5127606;28;20032;-71
2023/03/07 00:36:15;;;;;;;22.23;9.85;;;;;;;1.96;100.00;98892.91;5126107;28;20031;-70
2023/03/07 00:38:46;;;;;;;24.00;10.82;;;;;;;1.96;100.00;98893.72;5125295;28;20030;-73
2023/03/07 00:41:19;;;;;;;21.27;9.73;;;;;;;2.03;100.00;98890.06;5123461;28;20041;-71
2023/03/07 00:43:50;;;;;;;26.50;10.63;;;;;;;2.04;100.00;98880.63;5125686;28;20087;-71
2023/03/07 00:46:23;;;;;;;21.60;10.10;;;;;;;2.02;100.00;98880.66;5126420;28;20030;-72
2023/03/07 00:48:54;;;;;;;24.17;9.85;;;;;;;2.08;100.00;98871.91;5124483;28;20035;-71
2023/03/07 00:51:24;;;;;;;26.40;10.05;;;;;;;2.08;100.00;98875.34;5124488;28;20035;-72
2023/03/07 00:53:54;;;;;;;23.80;10.45;;;;;;;2.10;100.00;98860.69;5117460;28;20117;-71
2023/03/07 00:56:25;;;;;;;24.45;9.43;;;;;;;2.03;100.00;98855.75;5128939;28;20077;-71
2023/03/07 00:58:55;;;;;;;20.08;8.48;;;;;;;2.17;100.00;98845.91;5121062;28;20388;-71
2023/03/07 01:01:25;;;;;;;23.38;9.02;;;;;;;2.14;100.00;98841.69;5123006;28;22206;-70
2023/03/07 01:03:56;;;;;;;20.70;9.57;;;;;;;2.26;100.00;98840.47;5121715;28;20027;-71
2023/03/07 01:06:31;;;;;;;23.08;9.75;;;;;;;2.43;100.00;98823.59;5121020;28;20039;-71
2023/03/07 01:09:06;;;;;;;22.58;9.18;;;;;;;2.67;100.00;98811.66;5125612;28;20500;-73
2023/03/07 01:11:38;;;;;;;27.15;9.93;;;;;;;2.64;100.00;98804.00;5122212;28;20035;-71
2023/03/07 01:14:09;;;;;;;21.60;8.75;;;;;;;2.76;100.00;98807.06;5145559;23;20059;-73
2023/03/07 01:16:40;;;;;;;17.55;8.25;;;;;;;2.75;100.00;98805.38;5079742;29;20040;-72
2023/03/07 01:19:13;;;;;;;19.83;8.13;;;;;;;2.84;100.00;98793.91;5089519;29;20520;-74
2023/03/07 01:21:43;;;;;;;20.52;8.45;;;;;;;2.89;100.00;98782.53;5088118;29;20031;-72
2023/03/07 01:24:15;;;;;;;21.75;8.73;;;;;;;2.90;100.00;98785.97;5070365;29;20036;-73
2023/03/07 01:26:45;;;;;;;18.42;8.13;;;;;;;2.89;100.00;98779.13;5071244;29;20557;-73
2023/03/07 01:29:15;;;;;;;19.20;8.15;;;;;;;2.90;100.00;98780.81;5079401;29;20078;-72
2023/03/07 01:31:46;;;;;;;21.02;8.50;;;;;;;2.99;100.00;98767.59;5077690;29;20107;-72
2023/03/07 01:34:16;;;;;;;20.65;9.10;;;;;;;2.98;100.00;98763.31;5085302;29;20039;-72
2023/03/07 01:36:47;;;;;;;23.92;8.73;;;;;;;2.92;100.00;98754.06;5090555;29;20112;-74
2023/03/07 01:39:17;;;;;;;18.15;8.38;;;;;;;2.97;100.00;98748.72;5081383;29;20416;-72
2023/03/07 01:41:48;;;;;;;18.70;8.23;;;;;;;3.02;100.00;98745.09;5068990;29;20058;-74
2023/03/07 01:44:24;;;;;;;19.88;8.07;;;;;;;3.01;100.00;98750.34;5086021;29;20032;-72
2023/03/07 01:46:56;;;;;;;17.83;8.00;;;;;;;2.99;100.00;98741.81;5080025;29;20107;-73
2023/03/07 01:49:26;;;;;;;18.92;8.15;;;;;;;2.87;100.00;98737.06;5082148;29;20028;-73
2023/03/07 01:52:03;;;;;;;22.58;9.45;;;;;;;2.89;100.00;98719.78;5073734;29;20030;-74
2023/03/07 01:54:47;;;;;;;20.23;7.75;;;;;;;2.92;100.00;98710.22;5089317;29;20727;-72
2023/03/07 01:57:21;;;;;;;24.27;9.57;;;;;;;2.95;100.00;98704.09;5085100;29;20027;-73
2023/03/07 01:59:55;;;;;;;17.27;7.28;;;;;;;2.89;100.00;98705.16;5067490;29;20024;-72
2023/03/07 02:02:26;;;;;;;19.92;8.10;;;;;;;2.94;100.00;98705.84;5078196;29;20405;-73
2023/03/07 02:05:04;;;;;;;18.63;8.15;;;;;;;2.94;100.00;98699.84;5081516;29;20118;-73
2023/03/07 02:07:41;;;;;;;20.17;8.40;;;;;;;2.82;100.00;98690.78;5086290;29;20114;-73
2023/03/07 02:10:14;;;;;;;19.17;8.27;;;;;;;2.89;100.00;98696.59;5089259;29;20812;-72
2023/03/07 02:12:45;;;;;;;16.55;7.72;;;;;;;2.77;100.00;98687.53;5088534;29;20498;-72
2023/03/07 02:15:15;;;;;;;20.90;8.30;;;;;;;2.89;100.00;98683.69;5087974;29;20140;-72
2023/03/07 02:17:46;;;;;;;18.60;8.05;;;;;;;2.80;100.00;98677.13;5082990;29;20605;-72
2023/03/07 02:20:31;;;;;;;17.63;7.32;;;;;;;2.87;100.00;98675.16;5085783;29;20023;-73
2023/03/07 02:23:03;;;;;;;19.45;8.00;;;;;;;2.87;100.00;98670.84;5085599;29;20107;-72
2023/03/07 02:25:42;;;;;;;19.75;7.78;;;;;;;2.85;100.00;98666.66;5042055;29;20028;-72
2023/03/07 02:28:16;;;;;;;17.95;7.60;;;;;;;2.79;100.00;98670.28;5083112;29;20039;-74
2023/03/07 02:31:12;;;;;;;18.23;7.78;;;;;;;2.74;100.00;98658.44;5080972;29;20028;-72
2023/03/07 02:33:43;;;;;;;19.20;8.55;;;;;;;2.78;100.00;98657.44;5086678;29;20257;-72
2023/03/07 02:36:18;;;;;;;17.35;7.18;;;;;;;2.67;100.00;98657.81;5071560;29;20048;-74
2023/03/07 02:38:51;;;;;;;18.42;7.88;;;;;;;2.73;100.00;98664.50;5085977;29;20049;-74
2023/03/07 02:41:27;;;;;;;21.60;8.48;;;;;;;2.63;100.00;98652.81;5089805;29;20078;-72
2023/03/07 02:43:57;;;;;;;20.10;8.10;;;;;;;2.77;100.00;98648.88;5079959;29;20091;-73
2023/03/07 02:46:27;;;;;;;17.67;7.70;;;;;;;2.71;100.00;98646.47;5086231;29;20024;-73
2023/03/07 02:48:58;;;;;;;18.25;7.32;;;;;;;2.80;100.00;98640.16;5081633;29;20325;-74
2023/03/07 02:51:28;;;;;;;16.65;7.50;;;;;;;2.76;100.00;98636.00;5086794;29;20023;-73
2023/03/07 02:53:58;;;;;;;15.65;7.25;;;;;;;2.69;100.00;98635.38;5090524;29;20032;-73
2023/03/07 02:56:29;;;;;;;22.08;9.07;;;;;;;2.71;100.00;98635.34;5088165;29;20024;-73
2023/03/07 02:59:00;;;;;;;15.88;7.28;;;;;;;2.74;100.00;98627.50;5081476;29;20027;-72
2023/03/07 03:01:30;;;;;;;17.15;7.50;;;;;;;2.70;100.00;98623.34;5067966;29;20462;-72
2023/03/07 03:04:00;;;;;;;17.73;7.90;;;;;;;2.62;100.00;98630.50;5068672;29;20038;-73
2023/03/07 03:06:31;;;;;;;16.35;6.53;;;;;;;2.71;100.00;98617.28;5090301;29;20486;-73
2023/03/07 03:09:01;;;;;;;18.95;7.55;;;;;;;2.71;100.00;98617.28;5083450;29;20032;-74
2023/03/07 03:11:32;;;;;;;18.40;7.97;;;;;;;2.66;100.00;98614.06;5070268;29;20027;-74
2023/03/07 03:14:02;;;;;;;17.80;7.38;;;;;;;2.64;100.00;98619.25;5087748;29;20031;-75
2023/03/07 03:16:32;;;;;;;14.98;7.05;;;;;;;2.62;100.00;98617.59;5085479;29;20197;-72
2023/03/07 03:19:04;;;;;;;15.88;7.20;;;;;;;2.67;100.00;98608.00;5086195;29;20134;-73
2023/03/07 03:21:35;;;;;;;15.07;6.85;;;;;;;2.61;100.00;98609.06;5068951;29;20118;-72
2023/03/07 03:24:07;;;;;;;16.42;7.32;;;;;;;2.55;100.00;98605.84;5087940;29;20043;-73
2023/03/07 03:26:37;;;;;;;19.33;7.57;;;;;;;2.50;100.00;98602.59;5086143;29;20043;-72
2023/03/07 03:29:08;;;;;;;15.65;7.28;;;;;;;2.50;100.00;98608.56;5063568;29;20048;-72
2023/03/07 03:31:39;;;;;;;17.95;7.40;;;;;;;2.59;100.00;98602.25;5077980;29;20131;-73
2023/03/07 03:34:09;;;;;;;15.43;6.95;;;;;;;2.52;100.00;98609.34;5081801;29;20470;-72
2023/03/07 03:36:39;;;;;;;15.90;6.95;;;;;;;2.57;100.00;98604.91;5088189;29;20115;-72
2023/03/07 03:39:09;;;;;;;18.02;7.22;;;;;;;2.52;100.00;98600.81;5083020;29;20021;-74
2023/03/07 03:41:40;;;;;;;16.35;6.25;;;;;;;2.50;100.00;98600.03;5080128;29;20039;-74
2023/03/07 03:44:10;;;;;;;13.52;6.65;;;;;;;2.51;100.00;98601.69;5085414;29;20027;-73
2023/03/07 03:46:41;;;;;;;16.17;7.43;;;;;;;2.56;100.00;98594.63;5086462;29;20040;-72
2023/03/07 03:49:12;;;;;;;16.40;7.13;;;;;;;2.57;100.00;98598.91;5062571;29;20027;-75
2023/03/07 03:51:42;;;;;;;16.38;6.78;;;;;;;2.67;100.00;98589.94;5086602;29;20055;-73
2023/03/07 03:54:12;;;;;;;16.45;7.40;;;;;;;2.63;100.00;98599.53;5068168;29;20032;-73
2023/03/07 03:56:43;;;;;;;17.23;7.43;;;;;;;2.63;100.00;98589.22;5080464;29;20033;-74
2023/03/07 03:59:13;;;;;;;13.73;6.90;;;;;;;2.62;100.00;98596.97;5078548;29;20028;-73
2023/03/07 04:01:43;;;;;;;14.50;6.63;;;;;;;2.63;100.00;98588.34;5080509;29;20047;-74
2023/03/07 04:04:14;;;;;;;16.25;7.30;;;;;;;2.75;100.00;98591.34;5081107;29;20028;-73
2023/03/07 04:06:44;;;;;;;17.38;6.70;;;;;;;2.59;100.00;98587.66;5089335;29;20123;-73
2023/03/07 04:09:14;;;;;;;16.20;6.82;;;;;;;2.70;100.00;98582.09;5083817;29;20422;-72
2023/03/07 04:11:45;;;;;;;16.23;6.28;;;;;;;2.64;100.00;98577.16;5087070;29;20042;-73
2023/03/07 04:14:15;;;;;;;15.43;6.80;;;;;;;2.74;100.00;98581.09;5086415;29;20023;-74
2023/03/07 04:16:46;;;;;;;13.38;5.50;;;;;;;2.73;100.00;98575.09;5084245;29;20394;-73
2023/03/07 04:19:16;;;;;;;17.20;6.68;;;;;;;2.74;100.00;98569.03;5081280;29;20027;-72
2023/03/07 04:21:47;;;;;;;13.77;6.20;;;;;;;2.76;100.00;98564.69;5086708;29;20082;-72
2023/03/07 04:24:17;;;;;;;15.70;6.82;;;;;;;2.79;100.00;98571.44;5061931;29;20363;-72
2023/03/07 04:26:47;;;;;;;14.35;6.47;;;;;;;2.82;100.00;98569.59;5078619;29;20482;-71
2023/03/07 04:29:18;;;;;;;15.35;6.13;;;;;;;2.76;100.00;98574.13;5082276;29;20493;-74
2023/03/07 04:31:48;;;;;;;15.73;6.93;;;;;;;2.68;100.00;98569.25;5080591;29;20036;-74
2023/03/07 04:34:18;;;;;;;14.43;6.13;;;;;;;2.78;100.00;98562.00;5081337;29;20035;-73
2023/03/07 04:36:49;;;;;;;12.68;5.72;;;;;;;2.79;100.00;98559.41;5068157;29;20123;-73
2023/03/07 04:39:19;;;;;;;13.70;6.22;;;;;;;2.84;100.00;98564.38;5082391;29;20157;-72
2023/03/07 04:41:49;;;;;;;13.00;6.20;;;;;;;2.81;100.00;98559.31;5071729;29;20036;-72
2023/03/07 04:44:20;;;;;;;12.68;5.75;;;;;;;2.84;100.00;98551.50;5080410;29;20657;-73
2023/03/07 04:46:50;;;;;;;14.07;6.32;;;;;;;2.92;100.00;98555.47;5078837;29;20043;-73
2023/03/07 04:49:20;;;;;;;12.73;5.70;;;;;;;2.92;100.00;98555.47;5081642;29;20028;-73
2023/03/07 04:51:50;;;;;;;13.38;5.40;;;;;;;3.01;100.00;98551.72;5088389;29;20027;-75
2023/03/07 04:54:21;;;;;;;13.27;5.80;;;;;;;3.02;100.00;98540.50;5066372;29;20044;-74
2023/03/07 04:56:51;;;;;;;12.95;6.15;;;;;;;2.98;100.00;98542.34;5088321;29;20269;-72
2023/03/07 04:59:22;;;;;;;13.23;5.85;;;;;;;3.00;100.00;98548.28;5084694;29;20538;-73
2023/03/07 05:01:52;;;;;;;14.02;5.88;;;;;;;3.06;100.00;98537.72;5076226;29;20221;-74
2023/03/07 05:04:22;;;;;;;12.77;5.85;;;;;;;3.07;100.00;98534.25;5074935;29;20479;-73
2023/03/07 05:06:53;;;;;;;12.85;5.95;;;;;;;3.04;100.00;98531.78;5084496;29;20317;-71
2023/03/07 05:09:23;;;;;;;15.10;6.35;;;;;;;3.06;100.00;98531.72;5087545;29;20023;-72
2023/03/07 05:11:53;;;;;;;14.57;6.07;;;;;;;3.09;100.00;98526.44;5087916;29;20027;-74
2023/03/07 05:14:24;;;;;;;13.82;6.28;;;;;;;3.09;100.00;98526.44;5084150;29;20037;-73
2023/03/07 05:16:55;;;;;;;12.00;5.57;;;;;;;3.07;100.00;98538.56;5072969;29;20055;-72
2023/03/07 05:19:25;;;;;;;13.13;5.80;;;;;;;3.07;100.00;98517.94;5084673;29;20099;-73
2023/03/07 05:21:56;;;;;;;13.77;6.15;;;;;;;3.18;100.00;98515.78;5077821;29;20034;-74
2023/03/07 05:24:26;;;;;;;12.73;6.32;;;;;;;3.17;100.00;98512.34;5088647;29;20040;-74
2023/03/07 05:26:56;;;;;;;13.93;6.78;;;;;;;3.12;100.00;98518.59;5073085;29;20035;-73
2023/03/07 05:29:27;;;;;;;15.07;6.07;;;;;;;3.11;100.00;98504.84;5088902;29;20043;-72
2023/03/07 05:31:57;;;;;;;14.75;6.18;;;;;;;3.21;100.00;98510.50;5082527;29;20088;-74
2023/03/07 05:34:28;;;;;;;14.15;5.88;;;;;;;3.19;100.00;98514.88;5071171;29;20067;-74
2023/03/07 05:36:58;;;;;;;14.48;5.93;;;;;;;3.20;100.00;98506.25;5084442;29;20180;-73
2023/03/07 05:39:28;;;;;;;11.80;5.22;;;;;;;3.16;100.00;98513.25;5071170;29;20398;-74
2023/03/07 05:41:58;;;;;;;11.75;4.95;;;;;;;3.17;100.00;98516.69;5088575;29;20034;-72
2023/03/07 05:44:29;;;;;;;13.77;6.60;;;;;;;3.32;100.00;98514.31;5085035;29;20477;-72
2023/03/07 05:46:59;;;;;;;13.65;6.30;;;;;;;3.22;100.00;98504.44;5082370;29;20032;-72
2023/03/07 05:49:29;;;;;;;13.55;5.68;;;;;;;3.30;100.00;98510.97;5085044;29;20093;-72
2023/03/07 05:52:00;;;;;;;15.23;5.68;;;;;;;3.34;100.00;98507.38;5071876;29;20241;-73
2023/03/07 05:54:30;;;;;;;12.63;5.88;;;;;;;3.37;100.00;98512.41;5080957;29;20541;-72
2023/03/07 05:57:00;;;;;;;12.20;5.78;;;;;;;3.36;100.00;98505.56;5057911;29;20502;-71
2023/03/07 05:59:31;;;;;;;13.75;5.90;;;;;;;3.31;100.00;98506.63;5082948;29;20112;-72
2023/03/07 06:02:01;;;;;;;11.65;5.43;;;;;;;3.32;100.00;98505.72;5072420;29;20062;-73
2023/03/07 06:04:31;;;;;;;12.85;5.63;;;;;;;3.41;100.00;98502.78;5087758;29;20507;-74
2023/03/07 06:07:02;;;;;;;13.98;5.95;;;;;;;3.43;100.00;98496.69;5069645;29;20417;-72
2023/03/07 06:09:32;;;;;;;11.30;5.63;;;;;;;3.40;100.00;98506.28;5070706;29;20027;-70
2023/03/07 06:12:03;;;;;;;11.50;5.75;;;;;;;3.46;100.00;98506.03;5088430;29;20501;-72
2023/03/07 06:14:33;;;;;;;13.10;5.68;;;;;;;3.39;100.00;98504.59;5087459;29;20587;-72
2023/03/07 06:17:04;;;;;;;12.48;6.25;;;;;;;3.37;100.00;98514.16;5079044;29;20495;-72
2023/03/07 06:19:34;;;;;;;13.55;6.20;;;;;;;3.45;100.00;98519.84;5077218;29;20680;-72
2023/03/07 06:22:05;;;;;;;16.20;6.38;;;;;;;3.56;100.00;98543.50;5065512;29;20239;-75
2023/03/07 06:24:35;;;;;;;12.18;6.22;;;;;;;3.57;100.00;98550.34;5056553;29;20040;-74
2023/03/07 06:27:06;;;;;;;10.65;4.65;;;;;;;3.26;100.00;98565.34;5089031;29;20028;-74
2023/03/07 06:29:36;;;;;;;14.05;5.75;;;;;;;3.07;100.00;98564.38;5086816;29;20056;-74
2023/03/07 06:32:07;;;;;;;12.93;5.78;;;;;;;2.95;100.00;98564.81;5088520;29;20498;-75
2023/03/07 06:34:37;;;;;;;11.85;5.75;;;;;;;2.67;100.00;98570.16;5089015;29;20447;-74
2023/03/07 06:37:07;;;;;;;12.15;5.53;;;;;;;2.77;100.00;98581.81;5087602;29;20099;-75
2023/03/07 06:39:38;;;;;;;10.52;5.18;;;;;;;2.47;100.00;98584.66;5090197;29;20078;-74
2023/03/07 06:42:08;;;;;;;9.60;4.97;;;;;;;2.43;100.00;98583.94;5090407;29;20035;-74
2023/03/07 06:44:38;;;;;;;11.10;5.22;;;;;;;2.42;100.00;98589.13;5084996;29;20036;-74
2023/03/07 06:47:09;;;;;;;8.82;4.88;;;;;;;2.32;100.00;98590.34;5080187;29;20233;-73
2023/03/07 06:49:39;;;;;;;10.38;4.93;;;;;;;2.13;100.00;98597.03;5085542;29;20030;-71
2023/03/07 06:52:09;;;;;;;10.85;5.03;;;;;;;2.11;100.00;98588.47;5072017;29;20119;-73
2023/03/07 06:54:39;;;;;;;10.63;5.07;;;;;;;2.01;100.00;98595.69;5088774;29;20036;-72
2023/03/07 06:57:10;;;;;;;13.60;4.78;;;;;;;2.06;100.00;98596.38;5069126;29;20027;-72
2023/03/07 06:59:40;;;;;;;10.75;5.05;;;;;;;2.02;100.00;98599.09;5089637;29;20028;-73
2023/03/07 07:02:13;;;;;;;12.48;5.45;;;;;;;2.19;100.00;98591.66;5083591;29;20418;-75
2023/03/07 07:04:43;;;;;;;10.95;5.65;;;;;;;2.12;100.00;98596.16;5084779;29;20281;-75
2023/03/07 07:07:14;;;;;;;11.90;5.63;;;;;;;2.07;100.00;98592.06;5070869;29;20405;-74
2023/03/07 07:09:44;;;;;;;10.18;5.40;;;;;;;2.13;100.00;98595.28;5090484;29;20130;-73
2023/03/07 07:12:14;;;;;;;11.13;4.93;;;;;;;2.09;100.00;98595.41;5087576;29;20517;-75
2023/03/07 07:14:45;;;;;;;11.80;5.03;;;;;;;2.17;100.00;98593.44;5106254;23;20055;-77
2023/03/07 07:17:15;;;;;;;10.00;4.40;;;;;;;2.13;100.00;98591.88;5063403;29;20514;-78
2023/03/07 07:19:46;;;;;;;12.05;4.32;;;;;;;2.11;100.00;98589.34;5063649;29;20032;-77
2023/03/07 07:22:16;;;;;;;11.25;4.85;;;;;;;2.24;100.00;98589.75;5059652;29;20028;-77
2023/03/07 07:24:47;;;;;;;8.38;4.25;;;;;;;2.37;100.00;98580.72;5073755;29;20398;-78
2023/03/07 07:27:18;;;;;;;8.48;4.32;;;;;;;2.39;100.00;98581.50;5065733;29;20509;-78
2023/03/07 07:29:48;;;;;;;7.72;4.13;;;;;;;2.53;100.00;98584.44;5066004;29;20028;-79
2023/03/07 07:32:19;;;;;;;7.85;3.45;;;;;;;2.43;100.00;98589.06;5068232;29;20036;-78
2023/03/07 07:34:49;;;;;;;8.88;3.92;;;;;;;2.53;100.00;98584.44;5065870;29;20024;-79
2023/03/07 07:37:19;;;;;;;8.50;3.78;;;;;;;2.54;100.00;98591.28;5060307;29;20028;-78
2023/03/07 07:39:50;;;;;;;8.38;4.07;;;;;;;2.73;100.00;98581.97;5070513;29;20419;-77
2023/03/07 07:42:20;;;;;;;7.53;3.55;;;;;;;2.78;100.00;98580.94;5067542;29;20032;-75
2023/03/07 07:44:50;;;;;;;7.75;3.38;;;;;;;2.96;100.00;98584.56;5069366;29;20039;-76
2023/03/07 07:47:22;;;;;;;6.32;2.95;;;;;;;2.89;100.00;98589.09;5055102;29;20398;-76
2023/03/07 07:49:53;;;;;;;8.75;3.28;;;;;;;2.89;100.00;98591.66;5069087;29;20032;-77
2023/03/07 07:52:23;;;;;;;5.18;2.80;;;;;;;2.97;100.00;98581.94;5067310;29;20037;-76
2023/03/07 07:54:53;;;;;;;7.60;3.55;;;;;;;3.03;100.00;98583.44;5065348;29;20349;-75
2023/03/07 07:57:24;;;;;;;5.88;2.83;;;;;;;3.22;100.00;98592.16;5058832;29;20032;-74
2023/03/07 07:59:54;;;;;;;7.55;3.17;;;;;;;3.21;100.00;98595.66;5060775;29;20032;-76
2023/03/07 08:02:24;;;;;;;5.53;2.85;;;;;;;3.18;100.00;98590.59;5067473;29;20024;-75
2023/03/07 08:04:55;;;;;;;6.80;3.40;;;;;;;3.15;100.00;98585.53;5069876;29;20123;-76
2023/03/07 08:07:25;;;;;;;6.13;3.00;;;;;;;3.31;100.00;98594.38;5059583;29;20423;-76
2023/03/07 08:09:56;;;;;;;5.03;2.55;;;;;;;3.32;100.00;98596.06;5069721;29;20498;-76
2023/03/07 08:12:26;;;;;;;4.47;2.55;;;;;;;3.28;100.00;98594.50;5063538;29;20124;-76
2023/03/07 08:14:56;;;;;;;5.75;2.78;;;;;;;3.40;100.00;98592.28;5069312;29;20398;-76
2023/03/07 08:17:29;;;;;;;4.93;2.58;;;;;;;3.34;100.00;98591.72;5069242;29;20069;-76
2023/03/07 08:20:04;;;;;;;6.45;2.90;;;;;;;3.44;100.00;98580.09;5068042;29;20043;-76
2023/03/07 08:22:36;;;;;;;4.27;2.23;;;;;;;3.32;100.00;98596.06;5067604;29;20040;-74
2023/03/07 08:25:16;;;;;;;3.95;1.98;;;;;;;3.41;100.00;98595.72;5065120;29;20925;-75
2023/03/07 08:27:51;;;;;;;5.57;2.60;;;;;;;3.41;100.00;98590.56;5069514;29;20031;-77
2023/03/07 08:30:24;;;;;;;3.10;1.98;;;;;;;3.34;100.00;98589.94;5069946;29;20039;-76
2023/03/07 08:32:55;;;;;;;3.80;1.70;;;;;;;3.49;100.00;98593.66;5065041;29;20554;-76
2023/03/07 08:35:28;;;;;;;4.50;1.73;;;;;;;3.30;100.00;98595.28;5069903;29;20518;-76
2023/03/07 08:37:59;;;;;;;3.10;1.58;;;;;;;3.39;100.00;98592.38;5062670;29;20038;-76
2023/03/07 08:40:30;;;;;;;3.80;1.40;;;;;;;3.27;100.00;98590.25;5070513;29;20507;-76
2023/03/07 08:43:00;;;;;;;4.43;1.55;;;;;;;3.28;100.00;98597.09;5069672;29;20028;-76
2023/03/07 08:45:31;;;;;;;3.92;1.58;;;;;;;3.08;100.00;98603.03;5073727;29;20073;-76
2023/03/07 08:48:01;;;;;;;2.17;1.23;;;;;;;3.09;100.00;98596.09;5070785;29;20028;-75
2023/03/07 08:50:31;;;;;;;6.28;1.90;;;;;;;3.02;100.00;98598.06;5072473;29;20028;-75
2023/03/07 08:53:02;;;;;;;4.50;1.80;;;;;;;2.89;100.00;98598.59;5072448;29;20322;-76
2023/03/07 08:55:35;;;;;;;2.20;1.35;;;;;;;2.88;100.00;98600.31;5069486;29;20314;-77
2023/03/07 08:58:06;;;;;;;2.17;1.33;;;;;;;2.74;100.00;98612.03;5066283;29;20037;-74
2023/03/07 09:00:37;;;;;;;3.53;1.70;;;;;;;2.60;100.00;98616.81;5069937;29;20035;-75
2023/03/07 09:03:08;;;;;;;4.03;2.00;;;;;;;2.62;100.00;98621.03;5069175;29;20032;-76
2023/03/07 09:05:38;;;;;;;6.80;2.30;;;;;;;2.65;100.00;98622.69;5056188;29;20447;-78
2023/03/07 09:08:08;;;;;;;8.80;3.13;;;;;;;2.67;100.00;98615.72;5055173;29;81747;-78
2023/03/07 09:10:39;;;;;;;7.57;2.25;;;;;;;2.56;100.00;98617.84;5042044;29;20049;-78
2023/03/07 09:13:09;;;;;;;6.97;1.90;;;;;;;2.47;100.00;98615.59;5042100;29;20071;-78
2023/03/07 09:15:40;;;;;;;4.35;1.75;;;;;;;2.51;100.00;98624.91;5031436;29;20120;-77
2023/03/07 09:18:11;;;;;;;8.98;2.97;;;;;;;2.46;100.00;98624.19;5041415;29;20025;-77
2023/03/07 09:20:41;;;;;;;2.58;1.20;;;;;;;2.44;100.00;98625.97;5042708;29;20033;-77
2023/03/07 09:23:11;;;;;;;2.50;1.20;;;;;;;2.49;100.00;98624.09;5041485;29;20212;-74
2023/03/07 09:25:43;;;;;;;2.75;1.13;;;;;;;2.60;100.00;98609.09;5042577;29;20057;-78
2023/03/07 09:28:13;;;;;;;2.95;1.17;;;;;;;2.62;100.00;98610.72;5041982;29;20037;-77
2023/03/07 09:30:43;;;;;;;1.63;0.75;;;;;;;2.74;100.00;98601.72;5042378;29;20044;-77
2023/03/07 09:33:14;;;;;;;1.88;0.77;;;;;;;2.74;100.00;98607.72;5040671;29;20106;-77
2023/03/07 09:35:44;;;;;;;1.52;0.80;;;;;;;2.93;100.00;98598.41;5056616;29;20288;-77
2023/03/07 09:38:14;;;;;;;2.72;0.80;;;;;;;3.00;100.00;98593.88;5041585;29;20115;-78
2023/03/07 09:40:47;;;;;;;2.55;0.90;;;;;;;3.01;100.00;98592.97;5041753;29;20025;-77
2023/03/07 09:43:24;;;;;;;2.58;1.23;;;;;;;3.31;100.00;98594.38;5054423;29;20115;-77
2023/03/07 09:46:23;;;;;;;3.35;1.23;;;;;;;3.21;100.00;98582.75;5038373;29;20029;-74
2023/03/07 09:49:17;;;;;;;3.40;1.35;;;;;;;3.33;100.00;98587.44;5041839;29;20033;-78
2023/03/07 09:51:50;;;;;;;2.70;1.10;;;;;;;3.69;100.00;98577.34;5037218;29;20499;-77
2023/03/07 09:54:27;;;;;;;2.28;1.55;;;;;;;3.81;100.00;98566.50;5041585;29;20033;-77
2023/03/07 09:56:59;;;;;;;2.33;1.27;;;;;;;3.96;100.00;98572.81;5038089;29;20043;-78
2023/03/07 09:59:43;;;;;;;2.05;1.25;;;;;;;4.14;100.00;98583.19;5041638;29;20278;-78
2023/03/07 10:02:37;;;;;;;3.08;1.30;;;;;;;4.29;100.00;98577.38;5040852;29;20564;-78
2023/03/07 10:05:42;;;;;;;4.10;1.00;;;;;;;4.32;100.00;98579.84;5039560;29;20392;-77
2023/03/07 10:08:16;;;;;;;3.15;1.30;;;;;;;4.41;100.00;98579.47;5040931;29;20025;-78
2023/03/07 10:11:02;;;;;;;3.25;1.30;;;;;;;4.14;100.00;98575.44;5040923;29;20067;-78
2023/03/07 10:14:09;;;;;;;4.10;1.02;;;;;;;4.14;100.00;98575.44;5040009;29;20124;-77
2023/03/07 10:17:03;;;;;;;4.57;1.20;;;;;;;3.96;100.00;98572.81;5058268;29;20056;-78
2023/03/07 10:19:52;;;;;;;6.45;0.80;;;;;;;3.87;100.00;98581.78;5059320;29;20028;-78
2023/03/07 10:22:34;;;;;;;3.45;0.90;;;;;;;3.55;100.00;98583.13;5060800;29;20415;-77
2023/03/07 10:25:27;;;;;;;2.70;0.60;;;;;;;3.75;100.00;98587.44;5057398;29;20032;-77
2023/03/07 10:28:29;;;;;;;5.20;0.85;;;;;;;3.71;100.00;98585.00;5055910;29;20040;-77
2023/03/07 10:31:09;;;;;;;2.88;0.60;;;;;;;3.49;100.00;98583.34;5055312;29;20511;-77
2023/03/07 10:33:44;;;;;;;3.85;0.88;;;;;;;3.59;100.00;98586.34;5056726;29;20431;-78
2023/03/07 10:36:18;;;;;;;11.43;3.38;;;;;;;3.37;100.00;98592.41;5061641;29;20051;-78
2023/03/07 10:39:03;;;;;;;7.07;2.85;;;;;;;3.25;100.00;98590.31;5059558;29;20104;-78
2023/03/07 10:41:33;;;;;;;6.75;2.15;;;;;;;3.21;100.00;98595.66;5059726;29;20039;-77
2023/03/07 10:44:03;;;;;;;6.90;2.55;;;;;;;3.04;100.00;98596.25;5057743;29;20032;-77
2023/03/07 10:46:34;;;;;;;6.10;1.73;;;;;;;2.94;100.00;98599.25;5058874;29;20036;-77
2023/03/07 10:49:15;;;;;;;5.07;1.30;;;;;;;2.96;100.00;98597.44;5058942;29;20061;-77
2023/03/07 10:52:23;;;;;;;3.67;0.80;;;;;;;2.87;100.00;98602.97;5057695;29;20028;-77
2023/03/07 10:55:15;;;;;;;3.40;0.90;;;;;;;2.76;100.00;98605.06;5059121;29;20068;-77
2023/03/07 10:57:46;;;;;;;3.45;0.80;;;;;;;2.71;100.00;98612.13;5058019;29;20024;-76
2023/03/07 11:00:17;;;;;;;2.42;0.70;;;;;;;2.66;100.00;98606.31;5058984;29;20072;-77
2023/03/07 11:02:47;;;;;;;4.32;0.70;;;;;;;2.61;100.00;98606.47;5057796;29;20350;-77
2023/03/07 11:05:35;;;;;;;1.05;0.68;;;;;;;2.52;100.00;98605.97;5055451;29;20024;-78
2023/03/07 11:08:28;;;;;;;1.58;0.75;;;;;;;2.30;100.00;98607.59;5054610;29;20541;-77
2023/03/07 11:11:03;;;;;;;4.18;1.13;;;;;;;2.35;100.00;98610.84;5058580;29;20494;-76
2023/03/07 11:13:34;;;;;;;1.98;0.98;;;;;;;2.32;100.00;98608.38;5055941;29;20107;-79
2023/03/07 11:16:24;;;;;;;3.22;0.90;;;;;;;2.34;100.00;98599.69;5057648;29;20037;-76
2023/03/07 11:18:56;;;;;;;1.65;0.75;;;;;;;2.28;100.00;98602.50;5058144;29;20032;-78
2023/03/07 11:21:30;;;;;;;2.97;1.10;;;;;;;2.36;100.00;98599.66;5059228;29;20167;-79
2023/03/07 11:24:15;;;;;;;6.55;1.08;;;;;;;2.43;100.00;98595.94;5055983;29;20036;-78
2023/03/07 11:26:52;;;;;;;3.47;1.10;;;;;;;2.38;100.00;98603.88;5058698;29;20032;-77
2023/03/07 11:29:23;;;;;;;3.25;1.40;;;;;;;2.48;100.00;98599.22;5055622;29;20289;-77
2023/03/07 11:32:08;;;;;;;4.35;1.00;;;;;;;2.45;100.00;98594.16;5058577;29;20040;-77
2023/03/07 11:34:42;;;;;;;2.10;0.90;;;;;;;2.46;100.00;98590.69;5058837;29;20522;-76
2023/03/07 11:37:18;;;;;;;1.13;0.68;;;;;;;2.46;100.00;98595.84;5058632;29;20266;-76
2023/03/07 11:40:07;;;;;;;2.30;0.70;;;;;;;2.34;100.00;98591.13;5058756;29;20250;-78
2023/03/07 11:42:43;;;;;;;1.77;0.70;;;;;;;2.50;100.00;98598.25;5055965;29;20144;-77
2023/03/07 11:45:42;;;;;;;6.82;1.02;;;;;;;2.47;100.00;98597.56;5055737;29;20039;-77
2023/03/07 11:48:48;;;;;;;10.13;2.20;;;;;;;2.59;100.00;98597.09;5055840;29;20040;-77
2023/03/07 11:51:36;;;;;;;5.50;1.70;;;;;;;2.66;100.00;98593.44;5056891;29;20641;-76
2023/03/07 11:54:15;;;;;;;9.27;2.17;;;;;;;2.87;100.00;98602.97;5054477;29;20111;-77